Weather at Paramali East Helipad

Public forecast

Using degrees Celsius for public forecast. Weather courtesy of forecast.io.

Closest aviation weather report (METAR) to Paramali East Helipad

Closest report is RAF Akrotiri, 11.1 nm (20.6 km) ESE.

2024/06/17 04:20 (retrieved 30 minutes ago)

LCRA 170420Z 20001KT 9999 FEW016 26/21 Q1009 TEMPO SCT016

Closest aviation forecast (TAF) to Paramali East Helipad

Forecast is more than 6 hours old.

Closest forecast is Beirut Rafic Hariri International Airport, 143.5 nm (265.8 km) ESE.

2024/06/16 21:00 (retrieved 8 hours ago)

TAF EDLW 162151Z 1621/1718 CNL TAF OLBA 162200Z 1700/1806 16004KT 8000 SCT026 BECMG 1706/1708 22010KT BECMG 1720/1722 14006KT NSC